Time;durP1;ratioP1;P1;durP2;ratioP2;P2;SDS_P1;SDS_P2;PMS_P1;PMS_P2;Temp;Humidity;BMP_temperature;BMP_pressure;BME280_temperature;BME280_humidity;BME280_pressure;Samples;Min_cycle;Max_cycle;Signal;HPM_P1;HPM_P2
2023/08/08 00:02:05;;;;;;;2.23;1.50;;;;;;;14.85;100.00;100124.28;5036099;28;20235;-65
2023/08/08 00:04:30;;;;;;;3.60;1.60;;;;;;;14.86;100.00;100125.13;5031043;28;20550;-65
2023/08/08 00:06:56;;;;;;;2.77;1.30;;;;;;;14.87;100.00;100118.97;5031338;28;20281;-65
2023/08/08 00:09:21;;;;;;;1.60;1.20;;;;;;;14.83;100.00;100126.16;5031477;28;20280;-65
2023/08/08 00:11:46;;;;;;;2.50;1.37;;;;;;;14.80;100.00;100128.16;5032783;28;20256;-65
2023/08/08 00:14:11;;;;;;;2.97;1.37;;;;;;;14.77;100.00;100125.75;5030881;28;20194;-65
2023/08/08 00:16:37;;;;;;;2.27;1.63;;;;;;;14.77;100.00;100125.75;5031260;28;20218;-66
2023/08/08 00:19:03;;;;;;;1.40;1.30;;;;;;;14.80;100.00;100120.38;5032041;28;20174;-64
2023/08/08 00:21:28;;;;;;;3.07;1.30;;;;;;;14.75;100.00;100119.84;5035889;28;20240;-64
2023/08/08 00:23:53;;;;;;;1.70;1.50;;;;;;;14.76;100.00;100124.94;5032015;28;20305;-65
2023/08/08 00:26:19;;;;;;;2.23;1.37;;;;;;;14.69;100.00;100129.72;5028600;28;20189;-64
2023/08/08 00:28:44;;;;;;;2.30;1.10;;;;;;;14.80;100.00;100128.97;5035323;28;20543;-64
2023/08/08 00:31:09;;;;;;;1.33;1.23;;;;;;;14.73;100.00;100125.16;5032966;28;20228;-64
2023/08/08 00:33:35;;;;;;;2.47;1.50;;;;;;;14.69;100.00;100116.78;5042057;28;20668;-64
2023/08/08 00:36:00;;;;;;;3.83;1.70;;;;;;;14.82;100.00;100121.06;5034509;28;20205;-64
2023/08/08 00:38:25;;;;;;;2.57;1.53;;;;;;;14.92;100.00;100121.25;5035343;28;20694;-64
2023/08/08 00:40:50;;;;;;;2.07;1.33;;;;;;;14.92;100.00;100121.25;5030746;28;20335;-64
2023/08/08 00:43:16;;;;;;;1.20;1.10;;;;;;;14.95;100.00;100121.84;5028259;28;20276;-64
2023/08/08 00:45:43;;;;;;;3.63;1.67;;;;;;;14.90;100.00;100112.78;5034121;28;20192;-64
2023/08/08 00:48:09;;;;;;;4.87;1.40;;;;;;;14.85;100.00;100115.69;5035285;28;20352;-64
2023/08/08 00:50:36;;;;;;;1.30;1.20;;;;;;;14.75;100.00;100112.94;5027819;28;20792;-63
2023/08/08 00:53:02;;;;;;;1.67;1.57;;;;;;;14.86;100.00;100104.41;5033966;28;20192;-64
2023/08/08 00:55:28;;;;;;;1.30;1.20;;;;;;;14.74;100.00;100103.50;5032769;28;20567;-65
2023/08/08 00:57:53;;;;;;;2.97;1.50;;;;;;;14.74;100.00;100100.91;5034668;28;20178;-65
2023/08/08 01:00:19;;;;;;;1.60;1.23;;;;;;;14.84;100.00;100104.50;5026247;28;20190;-66
2023/08/08 01:02:44;;;;;;;3.50;1.50;;;;;;;14.83;100.00;100104.59;5048028;28;20181;-65
2023/08/08 01:05:10;;;;;;;3.77;1.47;;;;;;;14.85;100.00;100108.72;5034198;28;20635;-65
2023/08/08 01:07:53;;;;;;;4.63;1.77;;;;;;;14.74;100.00;100098.34;5034660;28;20185;-65
2023/08/08 01:10:28;;;;;;;1.50;1.40;;;;;;;14.79;100.00;100095.41;5026028;28;20646;-64
2023/08/08 01:13:08;;;;;;;3.60;1.43;;;;;;;14.79;100.00;100088.47;5046579;28;20201;-64
2023/08/08 01:15:37;;;;;;;1.27;1.17;;;;;;;14.85;100.00;100094.97;5030580;28;20723;-64
2023/08/08 01:18:08;;;;;;;1.53;1.33;;;;;;;14.76;100.00;100095.63;5034600;28;20181;-64
2023/08/08 01:20:34;;;;;;;1.90;1.43;;;;;;;14.66;100.00;100101.47;5027152;28;20243;-64
2023/08/08 01:23:23;;;;;;;2.57;1.30;;;;;;;14.57;100.00;100106.44;5044768;28;20190;-64
2023/08/08 01:25:49;;;;;;;1.43;1.20;;;;;;;14.66;100.00;100108.41;5033700;28;20190;-65
2023/08/08 01:28:14;;;;;;;2.70;1.40;;;;;;;14.58;100.00;100102.94;5034262;28;20170;-65
2023/08/08 01:30:40;;;;;;;1.60;1.50;;;;;;;14.50;100.00;100099.13;5028022;28;20299;-65
2023/08/08 01:33:06;;;;;;;2.27;1.33;;;;;;;14.52;100.00;100110.22;5043777;28;20257;-65
2023/08/08 01:35:37;;;;;;;1.27;1.17;;;;;;;14.61;100.00;100103.53;5033353;28;20210;-65
2023/08/08 01:38:14;;;;;;;1.40;1.30;;;;;;;14.65;100.00;100096.41;5034218;28;20269;-65
2023/08/08 01:40:42;;;;;;;1.13;1.10;;;;;;;14.63;100.00;100099.06;5010342;28;20244;-65
2023/08/08 01:43:08;;;;;;;3.70;1.50;;;;;;;14.50;100.00;100095.72;5043643;28;20179;-65
2023/08/08 01:45:36;;;;;;;2.10;1.23;;;;;;;14.43;100.00;100102.25;5033252;28;20185;-65
2023/08/08 01:48:06;;;;;;;1.83;1.30;;;;;;;14.40;100.00;100094.69;5034026;28;20598;-65
2023/08/08 01:50:31;;;;;;;1.60;1.50;;;;;;;14.36;100.00;100102.69;5026919;28;20322;-65
2023/08/08 01:52:56;;;;;;;4.90;1.40;;;;;;;14.26;100.00;100106.84;5044655;28;20629;-65
2023/08/08 01:55:22;;;;;;;4.43;1.70;;;;;;;14.18;100.00;100101.41;5033223;28;20206;-65
2023/08/08 01:57:47;;;;;;;1.40;1.30;;;;;;;14.10;100.00;100099.31;5033512;28;20265;-65
2023/08/08 02:00:12;;;;;;;3.20;1.70;;;;;;;14.03;100.00;100100.69;5024667;28;20181;-65
2023/08/08 02:02:38;;;;;;;2.87;1.67;;;;;;;13.90;100.00;100090.34;5045802;28;20178;-65
2023/08/08 02:05:03;;;;;;;3.10;1.40;;;;;;;13.80;100.00;100092.75;5033169;28;20259;-66
2023/08/08 02:07:29;;;;;;;1.90;1.77;;;;;;;13.68;100.00;100085.81;5033583;28;20594;-66
2023/08/08 02:09:55;;;;;;;3.63;1.80;;;;;;;13.66;100.00;100078.19;5033249;28;20181;-65
2023/08/08 02:12:20;;;;;;;2.50;1.73;;;;;;;13.59;100.00;100076.13;5038165;28;20672;-65
2023/08/08 02:14:45;;;;;;;4.17;1.80;;;;;;;13.41;100.00;100081.59;5032705;28;20201;-65
2023/08/08 02:17:10;;;;;;;1.93;1.60;;;;;;;13.33;100.00;100079.47;5033425;28;20239;-65
2023/08/08 02:19:36;;;;;;;1.97;1.87;;;;;;;13.17;100.00;100073.69;5033236;28;20182;-65
2023/08/08 02:22:01;;;;;;;1.67;1.57;;;;;;;13.07;100.00;100074.28;5037616;28;20324;-65
2023/08/08 02:24:26;;;;;;;3.37;1.67;;;;;;;12.92;100.00;100077.84;5033028;28;20182;-65
2023/08/08 02:26:52;;;;;;;2.50;1.77;;;;;;;12.90;100.00;100072.00;5032934;28;20178;-65
2023/08/08 02:29:17;;;;;;;1.90;1.80;;;;;;;12.79;100.00;100074.41;5033194;28;20179;-65
2023/08/08 02:31:42;;;;;;;2.77;1.67;;;;;;;12.63;100.00;100070.25;5034462;28;20236;-65
2023/08/08 02:34:07;;;;;;;2.73;1.60;;;;;;;12.62;100.00;100066.00;5035232;28;20198;-65
2023/08/08 02:36:33;;;;;;;2.50;1.80;;;;;;;12.66;100.00;100072.63;5033311;28;20646;-65
2023/08/08 02:38:58;;;;;;;2.63;1.67;;;;;;;12.62;100.00;100071.16;5033020;28;20178;-65
2023/08/08 02:41:23;;;;;;;1.57;1.47;;;;;;;12.50;100.00;100075.38;5023699;28;20229;-65
2023/08/08 02:43:49;;;;;;;4.83;1.53;;;;;;;12.49;100.00;100067.69;5037178;28;20209;-65
2023/08/08 02:46:14;;;;;;;3.83;2.00;;;;;;;12.43;100.00;100068.94;5030700;28;20210;-66
2023/08/08 02:48:39;;;;;;;2.73;1.83;;;;;;;12.37;100.00;100070.13;5032944;28;20205;-66
2023/08/08 02:51:04;;;;;;;1.63;1.53;;;;;;;12.37;100.00;100070.13;5029712;28;20240;-66
2023/08/08 02:53:30;;;;;;;4.37;1.87;;;;;;;12.35;100.00;100063.41;5039955;28;20182;-66
2023/08/08 02:55:55;;;;;;;2.20;1.63;;;;;;;12.24;100.00;100070.06;5031812;28;20202;-66
2023/08/08 02:58:20;;;;;;;1.80;1.70;;;;;;;12.19;100.00;100077.28;5032413;28;20211;-66
2023/08/08 03:00:45;;;;;;;2.63;2.10;;;;;;;12.19;100.00;100077.28;5023022;28;20267;-66
2023/08/08 03:03:11;;;;;;;2.97;1.77;;;;;;;12.13;100.00;100075.06;5052307;28;20190;-65
2023/08/08 03:05:36;;;;;;;2.80;1.47;;;;;;;12.01;100.00;100070.66;5031901;28;20184;-65
2023/08/08 03:08:01;;;;;;;3.67;1.40;;;;;;;12.06;100.00;100069.44;5032051;28;20255;-65
2023/08/08 03:10:27;;;;;;;2.13;1.70;;;;;;;12.02;100.00;100068.00;5021887;28;20221;-65
2023/08/08 03:12:52;;;;;;;2.40;1.77;;;;;;;12.03;100.00;100061.91;5018561;28;20182;-66
2023/08/08 03:15:17;;;;;;;2.17;1.60;;;;;;;12.03;100.00;100064.50;5022962;28;20628;-65
2023/08/08 03:17:43;;;;;;;1.67;1.40;;;;;;;11.99;100.00;100068.16;5044465;28;20558;-65
2023/08/08 03:20:10;;;;;;;3.07;1.93;;;;;;;11.97;100.00;100064.03;5022907;28;20194;-65
2023/08/08 03:22:36;;;;;;;1.70;1.60;;;;;;;11.95;100.00;100064.91;5045629;28;20667;-65
2023/08/08 03:25:01;;;;;;;2.47;1.57;;;;;;;11.92;100.00;100061.69;5031498;28;20205;-65
2023/08/08 03:27:27;;;;;;;3.37;1.90;;;;;;;11.89;100.00;100060.13;5031987;28;20177;-66
2023/08/08 03:29:52;;;;;;;1.60;1.50;;;;;;;11.89;100.00;100067.03;5031632;28;20186;-65
2023/08/08 03:32:17;;;;;;;2.57;1.47;;;;;;;11.86;100.00;100069.81;5033040;28;20263;-65
2023/08/08 03:34:42;;;;;;;2.67;1.90;;;;;;;11.83;100.00;100070.00;5031228;28;20260;-65
2023/08/08 03:37:08;;;;;;;2.00;1.63;;;;;;;11.78;100.00;100076.25;5032100;28;20192;-65
2023/08/08 03:39:33;;;;;;;1.70;1.60;;;;;;;11.78;100.00;100072.84;5031737;28;20170;-65
2023/08/08 03:41:58;;;;;;;2.40;1.57;;;;;;;11.79;100.00;100080.50;5035455;28;20712;-65
2023/08/08 03:44:24;;;;;;;3.63;1.60;;;;;;;11.80;100.00;100076.16;5031582;28;20182;-65
2023/08/08 03:46:49;;;;;;;2.53;1.57;;;;;;;11.72;100.00;100076.63;5031776;28;20200;-65
2023/08/08 03:49:15;;;;;;;3.43;1.80;;;;;;;11.60;100.00;100080.75;5031646;28;20240;-65
2023/08/08 03:51:40;;;;;;;2.27;1.50;;;;;;;11.71;100.00;100074.97;5033091;28;20669;-65
2023/08/08 03:54:05;;;;;;;2.50;1.80;;;;;;;11.70;100.00;100081.03;5033576;28;20335;-65
2023/08/08 03:56:31;;;;;;;1.90;1.80;;;;;;;11.69;100.00;100079.38;5031778;28;20273;-65
2023/08/08 03:58:58;;;;;;;2.07;1.70;;;;;;;11.66;100.00;100074.41;5031166;28;20186;-65
2023/08/08 04:01:23;;;;;;;1.90;1.80;;;;;;;11.62;100.00;100067.75;5031710;28;20228;-65
2023/08/08 04:03:48;;;;;;;2.60;1.83;;;;;;;11.57;100.00;100067.22;5036208;28;20548;-65
2023/08/08 04:06:14;;;;;;;2.43;1.80;;;;;;;11.58;100.00;100067.13;5031392;28;20178;-66
2023/08/08 04:08:39;;;;;;;4.63;2.17;;;;;;;11.63;100.00;100061.69;5031395;28;20188;-65
2023/08/08 04:11:04;;;;;;;1.73;1.60;;;;;;;11.61;100.00;100063.56;5020819;28;20224;-65
2023/08/08 04:13:29;;;;;;;3.30;1.60;;;;;;;11.56;100.00;100068.97;5022828;28;20205;-66
2023/08/08 04:15:55;;;;;;;2.60;1.63;;;;;;;11.51;100.00;100062.44;5030416;28;20766;-66
2023/08/08 04:18:20;;;;;;;4.40;1.80;;;;;;;11.54;100.00;100064.84;5031233;28;20205;-66
2023/08/08 04:20:46;;;;;;;3.63;1.70;;;;;;;11.61;100.00;100072.09;5026881;28;20259;-66
2023/08/08 04:23:11;;;;;;;2.47;1.73;;;;;;;11.44;100.00;100070.50;5040703;28;20186;-65
2023/08/08 04:25:36;;;;;;;2.87;1.80;;;;;;;11.58;100.00;100064.53;5030923;28;20247;-66
2023/08/08 04:28:02;;;;;;;4.57;2.23;;;;;;;11.61;100.00;100064.38;5030923;28;20271;-66
2023/08/08 04:30:27;;;;;;;2.83;1.67;;;;;;;11.62;100.00;100063.47;5024303;28;20328;-65
2023/08/08 04:32:52;;;;;;;2.20;1.83;;;;;;;11.70;100.00;100072.47;5042278;28;20174;-65
2023/08/08 04:35:18;;;;;;;2.93;1.73;;;;;;;11.83;100.00;100072.56;5029523;28;20201;-65
2023/08/08 04:37:43;;;;;;;3.37;1.90;;;;;;;11.83;100.00;100075.97;5030698;28;20310;-65
2023/08/08 04:40:09;;;;;;;1.60;1.50;;;;;;;11.78;100.00;100071.09;5021979;28;20182;-66
2023/08/08 04:42:34;;;;;;;6.57;1.80;;;;;;;11.71;100.00;100064.66;5045018;28;20185;-65
2023/08/08 04:44:59;;;;;;;2.07;1.37;;;;;;;11.75;100.00;100065.31;5030657;28;20281;-65
2023/08/08 04:47:25;;;;;;;5.30;2.13;;;;;;;11.84;100.00;100061.34;5031042;28;20197;-65
2023/08/08 04:49:50;;;;;;;2.07;1.70;;;;;;;11.90;100.00;100061.78;5030958;28;20260;-65
2023/08/08 04:52:15;;;;;;;3.63;1.40;;;;;;;12.06;100.00;100060.91;5035265;28;20620;-65
2023/08/08 04:54:41;;;;;;;1.87;1.73;;;;;;;12.16;100.00;100054.25;5030580;28;20565;-65
2023/08/08 04:57:06;;;;;;;2.43;1.60;;;;;;;12.29;100.00;100051.72;5030921;28;20216;-65
2023/08/08 04:59:31;;;;;;;2.30;1.70;;;;;;;12.36;100.00;100057.34;5030931;28;20178;-65
2023/08/08 05:01:57;;;;;;;2.63;1.57;;;;;;;12.48;100.00;100060.88;5033994;28;20228;-66
2023/08/08 05:04:22;;;;;;;2.93;1.50;;;;;;;12.51;100.00;100053.78;5031316;28;20182;-65
2023/08/08 05:06:47;;;;;;;2.77;1.50;;;;;;;12.55;100.00;100049.25;5033721;28;20182;-66
2023/08/08 05:09:12;;;;;;;4.97;1.83;;;;;;;12.63;100.00;100059.91;5034710;28;20194;-65
2023/08/08 05:11:38;;;;;;;2.20;1.50;;;;;;;12.69;100.00;100053.53;5025787;28;20525;-65
2023/08/08 05:14:03;;;;;;;3.33;1.70;;;;;;;12.74;100.00;100047.16;5037034;28;20201;-65
2023/08/08 05:16:28;;;;;;;3.00;1.40;;;;;;;12.72;100.00;100046.41;5034573;28;20226;-66
2023/08/08 05:18:54;;;;;;;2.77;1.40;;;;;;;12.72;100.00;100051.56;5034840;28;20534;-66
2023/08/08 05:21:19;;;;;;;2.33;1.50;;;;;;;12.84;100.00;100044.81;5033482;28;20236;-65
2023/08/08 05:23:45;;;;;;;3.57;1.40;;;;;;;12.90;100.00;100049.56;5039687;28;20190;-65
2023/08/08 05:26:10;;;;;;;2.83;1.57;;;;;;;12.98;100.00;100053.41;5033706;28;20534;-65
2023/08/08 05:28:36;;;;;;;4.47;1.80;;;;;;;12.93;100.00;100052.88;5034007;28;20186;-65
2023/08/08 05:31:01;;;;;;;3.83;1.60;;;;;;;13.04;100.00;100050.44;5031333;28;20221;-65
2023/08/08 05:33:26;;;;;;;3.63;2.13;;;;;;;13.09;100.00;100056.09;5041691;28;20618;-65
2023/08/08 05:35:51;;;;;;;2.63;1.73;;;;;;;13.26;100.00;100046.41;5032928;28;20217;-66
2023/08/08 05:38:17;;;;;;;1.60;1.40;;;;;;;13.39;100.00;100055.84;5034346;28;20184;-66
2023/08/08 05:40:42;;;;;;;3.47;1.67;;;;;;;13.37;100.00;100056.84;5028642;28;20225;-66
2023/08/08 05:43:08;;;;;;;2.50;1.60;;;;;;;13.42;100.00;100049.66;5043088;28;20171;-66
2023/08/08 05:45:33;;;;;;;2.80;1.63;;;;;;;13.39;100.00;100042.91;5033468;28;20182;-66
2023/08/08 05:48:00;;;;;;;3.40;1.70;;;;;;;13.42;100.00;100054.00;5033641;28;20630;-65
2023/08/08 05:50:26;;;;;;;2.97;1.60;;;;;;;13.48;100.00;100057.00;5025961;28;20226;-66
2023/08/08 05:52:51;;;;;;;3.47;2.00;;;;;;;13.58;100.00;100054.59;5045024;28;20642;-66
2023/08/08 05:55:17;;;;;;;6.03;1.60;;;;;;;13.71;100.00;100055.44;5033290;28;20190;-65
2023/08/08 05:57:42;;;;;;;3.73;1.73;;;;;;;13.92;100.00;100057.47;5031869;28;20217;-66
2023/08/08 06:00:10;;;;;;;3.90;1.83;;;;;;;13.93;100.00;100063.47;5024472;28;20637;-66
2023/08/08 06:02:36;;;;;;;3.17;1.70;;;;;;;14.02;100.00;100061.06;5046962;28;20241;-66
2023/08/08 06:05:01;;;;;;;2.97;1.70;;;;;;;14.14;100.00;100063.72;5033269;28;20202;-66
2023/08/08 06:07:26;;;;;;;3.00;1.50;;;;;;;14.17;100.00;100058.34;5033480;28;20178;-66
2023/08/08 06:09:51;;;;;;;1.80;1.40;;;;;;;14.26;100.00;100051.69;5033255;28;20243;-66
2023/08/08 06:12:17;;;;;;;2.90;1.60;;;;;;;14.56;100.00;100056.44;5022622;28;20220;-66
2023/08/08 06:14:42;;;;;;;7.43;1.77;;;;;;;14.53;100.00;100056.66;5033138;28;20206;-68
2023/08/08 06:17:07;;;;;;;3.93;1.47;;;;;;;14.73;100.00;100052.66;5032904;28;20707;-67
2023/08/08 06:19:33;;;;;;;2.87;1.67;;;;;;;14.69;100.00;100057.22;5033478;28;20586;-68
2023/08/08 06:21:58;;;;;;;4.47;1.73;;;;;;;14.89;100.00;100052.38;5016725;28;20300;-66
2023/08/08 06:24:23;;;;;;;2.40;1.53;;;;;;;15.15;100.00;100058.19;5025566;28;20178;-67
2023/08/08 06:26:48;;;;;;;3.47;1.77;;;;;;;15.32;100.00;100056.13;5033085;28;20182;-68
2023/08/08 06:29:14;;;;;;;1.53;1.30;;;;;;;15.27;100.00;100053.03;5033187;28;20216;-68
2023/08/08 06:31:39;;;;;;;2.67;1.13;;;;;;;15.32;100.00;100046.59;5035079;28;20291;-68
2023/08/08 06:34:05;;;;;;;3.47;1.50;;;;;;;15.43;100.00;100044.94;5035494;28;20175;-66
2023/08/08 06:36:31;;;;;;;3.07;1.20;;;;;;;15.79;100.00;100046.50;5033019;28;20190;-65
2023/08/08 06:38:56;;;;;;;1.50;1.27;;;;;;;15.94;100.00;100044.50;5033252;28;20244;-66
2023/08/08 06:41:21;;;;;;;4.70;1.60;;;;;;;16.60;100.00;100040.22;5033051;28;20736;-66
2023/08/08 06:43:46;;;;;;;3.17;1.57;;;;;;;17.54;100.00;100042.88;5037427;28;20252;-65
2023/08/08 06:46:12;;;;;;;1.33;1.10;;;;;;;18.54;100.00;100037.78;5024910;28;20193;-65
2023/08/08 06:48:37;;;;;;;2.43;1.20;;;;;;;19.33;98.27;100043.75;5032808;28;20216;-64
2023/08/08 06:51:02;;;;;;;3.47;1.53;;;;;;;20.47;87.48;100050.47;5023977;28;20708;-64
2023/08/08 06:53:28;;;;;;;4.00;1.20;;;;;;;22.29;69.46;100048.84;5038414;28;20182;-66
2023/08/08 06:55:53;;;;;;;2.23;1.20;;;;;;;22.78;63.21;100048.91;5031687;28;20238;-65
2023/08/08 06:58:18;;;;;;;1.83;1.40;;;;;;;22.93;59.33;100046.44;5032428;28;20201;-66
2023/08/08 07:00:44;;;;;;;3.13;1.20;;;;;;;23.98;55.63;100044.69;5014303;28;20288;-65
2023/08/08 07:03:10;;;;;;;6.20;1.25;;;;;;;24.15;53.14;100051.50;5023073;28;20186;-65
2023/08/08 07:05:35;;;;;;;4.43;1.30;;;;;;;24.97;50.03;100046.63;5029219;28;20562;-66
2023/08/08 07:08:01;;;;;;;2.42;1.20;;;;;;;24.94;47.33;100060.09;5032172;28;20197;-65
2023/08/08 07:10:27;;;;;;;3.65;1.20;;;;;;;25.53;46.28;100050.66;5024804;28;20237;-65
2023/08/08 07:12:53;;;;;;;1.80;1.25;;;;;;;25.56;44.98;100063.44;5027588;28;20612;-65
2023/08/08 07:15:19;;;;;;;4.30;1.00;;;;;;;25.39;46.06;100058.38;5020726;28;20226;-65
2023/08/08 07:17:44;;;;;;;2.28;1.08;;;;;;;25.62;43.63;100063.50;5016860;28;20187;-65
2023/08/08 07:20:13;;;;;;;1.50;0.90;;;;;;;26.16;43.63;100064.16;5020451;28;20181;-65
2023/08/08 07:22:39;;;;;;;2.38;1.00;;;;;;;25.87;44.33;100055.28;5043350;28;20189;-65
2023/08/08 07:25:05;;;;;;;2.75;0.90;;;;;;;25.59;43.94;100058.63;5036463;28;20186;-64
2023/08/08 07:27:31;;;;;;;1.75;1.25;;;;;;;26.57;43.04;100052.19;5032003;28;20206;-64
2023/08/08 07:29:56;;;;;;;2.97;1.15;;;;;;;26.57;40.65;100058.25;5031053;28;20689;-65
2023/08/08 07:32:21;;;;;;;3.40;1.27;;;;;;;27.02;39.95;100055.38;5025486;28;20229;-69
2023/08/08 07:34:46;;;;;;;4.22;1.40;;;;;;;27.02;39.27;100057.22;5029110;28;20206;-73
2023/08/08 07:37:12;;;;;;;2.83;1.40;;;;;;;26.93;41.03;100042.50;5030670;28;20288;-74
2023/08/08 07:39:37;;;;;;;2.20;1.25;;;;;;;25.47;41.80;100046.91;5032196;28;20247;-72
2023/08/08 07:42:03;;;;;;;3.42;1.45;;;;;;;24.46;45.04;100045.38;5016069;28;20229;-73
2023/08/08 07:44:29;;;;;;;3.15;1.10;;;;;;;23.27;49.61;100029.69;5031405;28;20224;-73
2023/08/08 07:46:54;;;;;;;2.75;1.38;;;;;;;21.34;59.37;100034.94;5031895;28;20202;-74
2023/08/08 07:49:19;;;;;;;2.55;1.30;;;;;;;21.92;60.56;100045.69;5032406;28;20558;-75
2023/08/08 07:51:44;;;;;;;2.55;1.40;;;;;;;22.02;62.05;100048.97;4997454;28;20656;-73
2023/08/08 07:54:10;;;;;;;3.63;1.00;;;;;;;21.53;68.04;100046.13;5051168;28;20178;-71
2023/08/08 07:56:36;;;;;;;3.93;1.20;;;;;;;20.89;69.26;100047.25;5031725;28;20185;-71
2023/08/08 07:59:01;;;;;;;3.13;0.97;;;;;;;21.17;66.42;100036.63;5032791;28;20681;-72
2023/08/08 08:01:27;;;;;;;3.63;1.40;;;;;;;22.61;58.65;100034.19;5015014;28;20233;-74
2023/08/08 08:03:52;;;;;;;4.37;1.10;;;;;;;23.28;53.46;100033.97;5034069;28;20578;-74
2023/08/08 08:06:18;;;;;;;2.70;1.20;;;;;;;23.13;50.91;100033.78;5030399;28;20174;-74
2023/08/08 08:08:43;;;;;;;4.18;1.23;;;;;;;22.70;52.17;100039.25;5032793;28;20637;-70
2023/08/08 08:11:08;;;;;;;2.90;1.40;;;;;;;21.95;59.46;100028.81;5031138;28;20232;-71
2023/08/08 08:13:34;;;;;;;3.33;1.20;;;;;;;22.00;59.54;100037.81;5054925;28;20200;-70
2023/08/08 08:15:59;;;;;;;4.80;1.33;;;;;;;22.16;59.69;100038.84;5029823;28;20287;-75
2023/08/08 08:18:24;;;;;;;3.00;1.40;;;;;;;21.80;64.73;100039.09;5033213;28;20201;-72
2023/08/08 08:20:49;;;;;;;3.53;1.33;;;;;;;22.06;63.12;100041.63;5024402;28;20677;-71
2023/08/08 08:23:15;;;;;;;1.87;1.10;;;;;;;21.73;65.69;100031.03;5034071;28;20181;-73
2023/08/08 08:25:41;;;;;;;3.90;1.40;;;;;;;22.37;62.99;100033.16;5032267;28;20281;-75
2023/08/08 08:28:06;;;;;;;4.37;1.57;;;;;;;22.25;58.00;100036.09;5032327;28;20264;-71
2023/08/08 08:30:31;;;;;;;1.80;1.17;;;;;;;22.10;63.20;100029.81;5024182;28;20228;-70
2023/08/08 08:32:57;;;;;;;3.30;1.10;;;;;;;22.37;63.44;100035.78;5027816;28;20827;-70
2023/08/08 08:35:22;;;;;;;2.57;1.43;;;;;;;22.30;60.99;100029.53;5032175;28;20209;-70
2023/08/08 08:37:47;;;;;;;1.93;1.30;;;;;;;22.32;58.57;100027.59;5032267;28;20186;-71
2023/08/08 08:40:13;;;;;;;5.30;1.20;;;;;;;22.28;58.35;100028.88;5023171;28;20227;-74
2023/08/08 08:42:39;;;;;;;2.67;1.20;;;;;;;21.95;61.73;100023.59;5049193;28;20557;-73
2023/08/08 08:45:06;;;;;;;2.75;1.33;;;;;;;22.37;61.61;100027.91;5034564;28;20227;-73
2023/08/08 08:47:33;;;;;;;3.83;1.60;;;;;;;22.57;61.44;100025.81;5033770;28;20612;-72
2023/08/08 08:49:59;;;;;;;2.20;1.10;;;;;;;23.74;55.63;100014.09;5035376;28;20225;-75
2023/08/08 08:52:24;;;;;;;2.47;1.10;;;;;;;24.32;51.19;100032.97;5014713;28;20284;-72
2023/08/08 08:54:53;;;;;;;4.07;1.48;;;;;;;24.66;47.99;100034.41;5034591;28;20198;-72
2023/08/08 08:57:22;;;;;;;3.67;1.13;;;;;;;25.17;46.16;100032.91;5037084;28;20177;-72
2023/08/08 08:59:47;;;;;;;3.92;1.40;;;;;;;25.09;45.80;100037.28;5035081;28;20186;-75
2023/08/08 09:02:13;;;;;;;3.85;1.33;;;;;;;24.18;47.21;100037.19;5017499;28;20596;-73
2023/08/08 09:04:39;;;;;;;3.28;1.30;;;;;;;24.12;48.01;100038.69;5033229;28;20182;-71
2023/08/08 09:07:06;;;;;;;2.72;1.08;;;;;;;25.11;47.13;100037.09;5034202;28;20217;-73
2023/08/08 09:09:32;;;;;;;1.25;1.00;;;;;;;25.49;45.12;100029.13;5034267;28;20174;-70
2023/08/08 09:11:57;;;;;;;3.28;1.90;;;;;;;26.00;43.36;100033.56;5027543;28;20282;-74
2023/08/08 09:14:24;;;;;;;1.80;1.13;;;;;;;25.65;43.58;100035.19;5036530;28;20198;-72
2023/08/08 09:16:54;;;;;;;3.03;1.35;;;;;;;26.98;41.98;100035.66;5036723;28;20237;-72
2023/08/08 09:19:20;;;;;;;4.78;1.30;;;;;;;27.44;40.66;100038.78;5034815;28;20646;-75
2023/08/08 09:21:47;;;;;;;2.70;1.17;;;;;;;28.46;37.82;100037.03;5037419;28;20238;-75
2023/08/08 09:24:12;;;;;;;3.83;1.45;;;;;;;27.82;38.71;100043.59;5037878;28;20525;-77
2023/08/08 09:26:39;;;;;;;3.70;1.40;;;;;;;27.62;38.86;100030.31;5035453;28;20185;-75
2023/08/08 09:29:05;;;;;;;1.63;1.30;;;;;;;26.61;40.88;100039.41;5035971;28;20178;-76
2023/08/08 09:31:31;;;;;;;1.88;1.25;;;;;;;27.81;40.27;100032.22;5025402;28;20285;-74
2023/08/08 09:33:58;;;;;;;2.28;1.42;;;;;;;29.38;37.17;100038.16;5035757;28;20273;-74
2023/08/08 09:36:23;;;;;;;3.97;1.35;;;;;;;29.39;36.22;100027.34;5034960;28;20210;-74
2023/08/08 09:38:49;;;;;;;2.92;1.48;;;;;;;27.91;38.34;100031.00;5032639;28;20236;-72
2023/08/08 09:41:14;;;;;;;2.20;1.38;;;;;;;27.05;40.26;100033.88;5032729;28;20228;-71
2023/08/08 09:43:42;;;;;;;5.53;1.65;;;;;;;26.37;42.73;100029.09;5040674;28;20556;-74
2023/08/08 09:46:08;;;;;;;4.10;1.40;;;;;;;26.08;44.13;100022.91;5034162;28;20194;-73
2023/08/08 09:48:33;;;;;;;3.80;1.48;;;;;;;26.11;44.05;100024.38;5034654;28;20182;-75
2023/08/08 09:50:59;;;;;;;3.50;1.70;;;;;;;25.97;44.79;100019.94;5030978;28;20296;-74
2023/08/08 09:53:27;;;;;;;2.92;1.38;;;;;;;26.31;45.12;100023.72;5033688;28;20178;-73
2023/08/08 09:55:55;;;;;;;1.80;1.40;;;;;;;27.10;42.49;100028.00;5035142;28;20234;-74
2023/08/08 09:58:21;;;;;;;4.45;1.60;;;;;;;26.09;44.45;100026.38;5036640;28;20177;-72
2023/08/08 10:00:49;;;;;;;6.32;1.65;;;;;;;25.84;46.62;100017.97;5030352;28;20695;-72
2023/08/08 10:03:16;;;;;;;1.77;1.20;;;;;;;25.97;47.03;100019.94;5036734;28;20194;-73
2023/08/08 10:05:42;;;;;;;4.75;1.38;;;;;;;26.65;44.72;100020.38;5031771;28;20399;-72
2023/08/08 10:08:07;;;;;;;3.00;1.73;;;;;;;26.07;46.13;100016.03;5034353;28;20178;-74
2023/08/08 10:10:34;;;;;;;2.97;1.20;;;;;;;25.83;45.41;100017.16;5028844;28;20711;-75
2023/08/08 10:12:59;;;;;;;4.90;1.38;;;;;;;25.47;46.54;100010.06;5028784;28;20641;-73
2023/08/08 10:15:26;;;;;;;2.95;1.52;;;;;;;25.54;45.98;100012.75;5029555;28;20228;-73
2023/08/08 10:17:56;;;;;;;3.00;1.35;;;;;;;25.43;45.01;100012.22;5035137;28;20240;-75
2023/08/08 10:20:21;;;;;;;4.10;1.27;;;;;;;24.83;50.31;100008.75;5028368;28;20191;-76
2023/08/08 10:22:47;;;;;;;4.20;1.90;;;;;;;24.86;49.51;100013.66;5042405;28;20182;-75
2023/08/08 10:25:27;;;;;;;3.75;1.45;;;;;;;24.72;50.45;100004.75;5032262;28;20716;-71
2023/08/08 10:28:03;;;;;;;4.10;1.77;;;;;;;24.73;48.59;100003.72;5036633;28;20614;-73
2023/08/08 10:30:29;;;;;;;2.90;1.50;;;;;;;24.66;49.75;100008.09;5025314;28;20232;-72
2023/08/08 10:32:57;;;;;;;3.58;1.55;;;;;;;24.31;49.13;100005.88;5042386;28;20180;-72
2023/08/08 10:35:24;;;;;;;3.85;1.45;;;;;;;24.86;49.01;99994.41;5034857;28;20202;-74
2023/08/08 10:37:57;;;;;;;5.68;1.75;;;;;;;25.12;45.65;99994.78;5034656;28;20629;-74
2023/08/08 10:40:23;;;;;;;2.03;1.60;;;;;;;26.24;43.47;100006.03;5027426;28;20230;-74
2023/08/08 10:42:48;;;;;;;2.15;1.35;;;;;;;26.93;41.44;100003.75;5033544;28;20193;-74
2023/08/08 10:45:15;;;;;;;2.08;1.17;;;;;;;25.66;41.54;100010.47;5036367;28;20182;-75
2023/08/08 10:47:42;;;;;;;2.22;1.38;;;;;;;25.09;43.33;100007.50;5033353;28;20240;-74
2023/08/08 10:50:11;;;;;;;2.38;1.50;;;;;;;24.17;46.29;100004.00;5023252;28;20665;-72
2023/08/08 10:52:53;;;;;;;2.08;1.33;;;;;;;24.34;47.74;100004.72;5046540;28;20194;-73
2023/08/08 10:55:27;;;;;;;3.83;1.85;;;;;;;24.38;46.17;99989.41;5031295;28;20241;-73
2023/08/08 10:58:15;;;;;;;3.38;1.48;;;;;;;24.52;46.08;100007.00;5020087;28;20220;-72
2023/08/08 11:00:41;;;;;;;2.45;1.52;;;;;;;24.20;48.18;100011.56;5025748;28;20638;-76
2023/08/08 11:03:08;;;;;;;2.20;1.50;;;;;;;23.96;49.15;100007.25;5028546;28;20182;-71
2023/08/08 11:05:35;;;;;;;4.32;1.33;;;;;;;23.72;50.96;100006.38;5018644;28;20638;-71
2023/08/08 11:08:02;;;;;;;6.88;1.50;;;;;;;23.51;52.10;100005.16;5030959;28;20269;-71
2023/08/08 11:10:30;;;;;;;2.88;1.48;;;;;;;23.60;51.66;100013.00;5025108;28;20235;-72
2023/08/08 11:13:01;;;;;;;3.17;1.80;;;;;;;23.57;51.05;100022.03;5030909;28;20209;-75
2023/08/08 11:15:27;;;;;;;4.10;1.60;;;;;;;23.54;47.72;100017.13;5018041;28;20304;-73